createdAt,value
2022-10-25T00:01:36.007Z,27.10
2022-10-25T00:04:04.374Z,27.40
2022-10-25T00:06:32.263Z,27.70
2022-10-25T00:09:00.899Z,27.10
2022-10-25T00:11:30.689Z,27.00
2022-10-25T00:14:02.453Z,27.50
2022-10-25T00:16:32.139Z,27.10
2022-10-25T00:19:00.121Z,27.00
2022-10-25T00:21:28.342Z,27.00
2022-10-25T00:23:56.316Z,26.80
2022-10-25T00:26:24.273Z,27.00
2022-10-25T00:28:54.326Z,26.60
2022-10-25T00:31:24.204Z,26.90
2022-10-25T00:33:52.646Z,27.40
2022-10-25T00:36:22.805Z,27.40
2022-10-25T00:38:51.093Z,27.00
2022-10-25T00:41:21.741Z,27.40
2022-10-25T00:43:51.638Z,27.50
2022-10-25T00:46:25.320Z,27.30
2022-10-25T00:48:56.983Z,27.40
2022-10-25T00:51:32.417Z,27.00
2022-10-25T00:54:00.613Z,27.00
2022-10-25T00:56:31.997Z,27.20
2022-10-25T00:59:07.583Z,27.60
2022-10-25T01:01:39.809Z,27.40
2022-10-25T01:04:12.625Z,27.50
2022-10-25T01:06:42.797Z,27.40
2022-10-25T01:09:15.424Z,27.10
2022-10-25T01:11:43.349Z,27.20
2022-10-25T01:14:15.244Z,27.30
2022-10-25T01:16:54.080Z,27.10
2022-10-25T01:19:40.729Z,27.30
2022-10-25T01:22:12.825Z,26.50
2022-10-25T01:25:32.115Z,26.60
2022-10-25T01:28:08.287Z,26.30
2022-10-25T01:31:00.691Z,25.90
2022-10-25T01:33:34.729Z,26.00
2022-10-25T01:36:09.454Z,26.00
2022-10-25T01:38:43.699Z,25.30
2022-10-25T01:41:20.819Z,24.90
2022-10-25T01:44:05.870Z,25.10
2022-10-25T01:46:45.923Z,25.30
2022-10-25T01:49:19.205Z,25.70
2022-10-25T01:51:47.141Z,26.00
2022-10-25T01:54:20.229Z,25.90
2022-10-25T01:56:58.845Z,25.80
2022-10-25T01:59:48.511Z,26.30
2022-10-25T02:02:25.134Z,26.40
2022-10-25T02:05:02.179Z,26.60
2022-10-25T02:07:36.644Z,26.60
2022-10-25T02:10:09.044Z,26.90
2022-10-25T02:12:44.012Z,26.60
2022-10-25T02:15:19.831Z,26.40
2022-10-25T02:17:56.050Z,26.80
2022-10-25T02:20:27.217Z,26.60
2022-10-25T02:22:56.365Z,26.40
2022-10-25T02:25:24.535Z,26.40
2022-10-25T02:27:55.444Z,26.80
2022-10-25T02:30:23.459Z,26.70
2022-10-25T02:32:53.030Z,26.70
2022-10-25T02:35:21.353Z,26.00
2022-10-25T02:37:49.583Z,25.90
2022-10-25T02:40:17.760Z,25.90
2022-10-25T02:42:45.761Z,26.10
2022-10-25T02:45:17.804Z,26.00
2022-10-25T02:47:45.941Z,25.80
2022-10-25T02:50:15.580Z,25.80
2022-10-25T02:52:43.775Z,25.70
2022-10-25T02:55:11.928Z,25.80
2022-10-25T02:57:39.954Z,25.80
2022-10-25T03:00:09.515Z,25.80
2022-10-25T03:02:37.515Z,25.80
2022-10-25T03:05:06.001Z,25.80
2022-10-25T03:07:35.297Z,25.60
2022-10-25T03:10:03.256Z,25.70
2022-10-25T03:12:31.191Z,26.00
2022-10-25T03:14:59.104Z,26.20
2022-10-25T03:17:27.046Z,26.40
2022-10-25T03:19:54.970Z,26.60
2022-10-25T03:22:22.876Z,26.20
2022-10-25T03:24:55.214Z,26.00
2022-10-25T03:27:23.225Z,26.00
2022-10-25T03:29:51.272Z,25.80
2022-10-25T03:32:19.182Z,25.70
2022-10-25T03:34:47.118Z,25.60
2022-10-25T03:37:14.999Z,25.10
2022-10-25T03:39:42.937Z,24.70
2022-10-25T03:42:12.199Z,24.80
2022-10-25T03:44:40.262Z,24.70
2022-10-25T03:47:08.193Z,24.60
2022-10-25T03:49:36.132Z,24.60
2022-10-25T03:52:06.052Z,24.30
2022-10-25T03:54:34.302Z,24.20
2022-10-25T03:57:03.078Z,23.90
2022-10-25T03:59:33.437Z,24.20
2022-10-25T04:02:02.154Z,24.40
2022-10-25T04:04:30.197Z,24.50
2022-10-25T04:06:58.167Z,24.10
2022-10-25T04:09:26.204Z,24.00
2022-10-25T04:11:54.141Z,24.20
2022-10-25T04:14:22.312Z,24.10
2022-10-25T04:16:51.667Z,23.90
2022-10-25T04:19:19.698Z,23.70
2022-10-25T04:21:47.629Z,23.30
2022-10-25T04:24:15.615Z,23.00
2022-10-25T04:26:43.587Z,22.90
2022-10-25T04:29:12.551Z,23.10
2022-10-25T04:31:40.510Z,23.20
2022-10-25T04:34:09.768Z,23.30
2022-10-25T04:36:38.990Z,23.30
2022-10-25T04:39:06.940Z,23.10
2022-10-25T04:41:34.881Z,23.00
2022-10-25T04:44:02.815Z,22.80
2022-10-25T04:46:30.766Z,22.80
2022-10-25T04:48:58.704Z,23.10
2022-10-25T04:51:28.103Z,23.20
2022-10-25T04:53:56.166Z,23.00
2022-10-25T04:56:24.634Z,23.30
2022-10-25T04:58:52.561Z,23.30
2022-10-25T05:01:21.454Z,23.30
2022-10-25T05:03:49.939Z,22.80
2022-10-25T05:06:19.443Z,23.10
2022-10-25T05:08:50.585Z,23.10
2022-10-25T05:11:21.175Z,23.50
2022-10-25T05:13:49.336Z,23.30
2022-10-25T05:16:21.290Z,23.40
2022-10-25T05:18:50.088Z,23.40
2022-10-25T05:21:19.164Z,23.40
2022-10-25T05:23:48.505Z,23.60
2022-10-25T05:26:17.958Z,23.70
2022-10-25T05:28:47.508Z,23.60
2022-10-25T05:31:16.905Z,23.70
2022-10-25T05:33:46.111Z,23.80
2022-10-25T05:36:14.832Z,23.60
2022-10-25T05:38:43.390Z,23.70
2022-10-25T05:41:14.392Z,23.50
2022-10-25T05:43:45.893Z,23.30
2022-10-25T05:46:15.880Z,23.50
2022-10-25T05:48:48.351Z,23.10
2022-10-25T05:51:33.308Z,23.10
2022-10-25T05:54:04.673Z,22.90
2022-10-25T05:56:35.155Z,23.10
2022-10-25T05:59:04.298Z,23.40
2022-10-25T06:01:32.322Z,24.00
2022-10-25T06:04:01.605Z,24.00
2022-10-25T06:06:29.655Z,23.70
2022-10-25T06:08:58.579Z,24.10
2022-10-25T06:11:27.409Z,24.20
2022-10-25T06:13:56.815Z,24.00
2022-10-25T06:16:25.302Z,24.10
2022-10-25T06:18:54.681Z,24.00
2022-10-25T06:21:24.750Z,23.90
2022-10-25T06:23:53.679Z,23.80
2022-10-25T06:26:23.469Z,23.50
2022-10-25T06:28:54.051Z,23.50
2022-10-25T06:31:23.921Z,23.30
2022-10-25T06:33:52.588Z,23.60
2022-10-25T06:36:21.913Z,23.40
2022-10-25T06:38:50.490Z,23.40
2022-10-25T06:41:19.633Z,23.60
2022-10-25T06:43:48.253Z,24.10
2022-10-25T06:46:21.730Z,24.30
2022-10-25T06:48:51.935Z,24.00
2022-10-25T06:51:21.441Z,24.00
2022-10-25T06:53:54.836Z,23.80
2022-10-25T06:56:26.266Z,23.60
2022-10-25T06:58:54.581Z,23.80
2022-10-25T07:01:24.135Z,23.60
2022-10-25T07:03:55.127Z,23.50
2022-10-25T07:06:28.236Z,23.50
2022-10-25T07:08:58.792Z,23.40
2022-10-25T07:11:28.748Z,23.40
2022-10-25T07:13:58.421Z,23.40
2022-10-25T07:16:27.606Z,23.50
2022-10-25T07:19:00.603Z,23.40
2022-10-25T07:21:29.895Z,23.20
2022-10-25T07:23:57.893Z,23.30
2022-10-25T07:26:28.256Z,23.40
2022-10-25T07:28:58.188Z,23.50
2022-10-25T07:31:28.218Z,23.90
2022-10-25T07:33:59.049Z,24.40
2022-10-25T07:36:28.867Z,24.40
2022-10-25T07:38:57.252Z,24.20
2022-10-25T07:41:25.539Z,24.40
2022-10-25T07:43:53.497Z,24.30
2022-10-25T07:46:21.931Z,24.20
2022-10-25T07:48:49.984Z,24.00
2022-10-25T07:51:19.222Z,24.30
2022-10-25T07:53:48.560Z,24.30
2022-10-25T07:56:22.485Z,24.40
2022-10-25T07:58:52.816Z,24.10
2022-10-25T08:01:23.300Z,23.70
2022-10-25T08:03:51.695Z,23.90
2022-10-25T08:06:21.089Z,23.80
2022-10-25T08:08:50.422Z,23.80
2022-10-25T08:11:18.468Z,23.80
2022-10-25T08:13:50.575Z,23.50
2022-10-25T08:16:19.046Z,23.90
2022-10-25T08:18:47.202Z,24.00
2022-10-25T08:21:15.212Z,23.90
2022-10-25T08:23:43.223Z,23.90
2022-10-25T08:26:14.783Z,23.90
2022-10-25T08:28:45.719Z,23.90
2022-10-25T08:31:15.723Z,24.00
2022-10-25T08:33:43.646Z,24.00
2022-10-25T08:36:11.634Z,24.20
2022-10-25T08:38:39.638Z,24.00
2022-10-25T08:41:14.674Z,24.00
2022-10-25T08:44:09.003Z,23.80
2022-10-25T08:46:40.592Z,23.80
2022-10-25T08:49:17.715Z,23.70
2022-10-25T08:51:48.294Z,23.90
2022-10-25T08:54:25.182Z,23.80
2022-10-25T08:57:14.713Z,24.10
2022-10-25T08:59:50.441Z,24.40
2022-10-25T09:02:24.759Z,24.30
2022-10-25T09:04:52.890Z,23.90
2022-10-25T09:07:47.393Z,23.80
2022-10-25T09:10:24.151Z,23.60
2022-10-25T09:12:58.621Z,23.50
2022-10-25T09:15:43.296Z,23.60
2022-10-25T09:18:16.899Z,23.40
2022-10-25T09:20:51.090Z,23.40
2022-10-25T09:23:27.680Z,23.60
2022-10-25T09:26:05.010Z,23.60
2022-10-25T09:28:50.712Z,23.70
2022-10-25T09:31:23.299Z,23.80
2022-10-25T09:33:54.618Z,23.50
2022-10-25T09:36:23.082Z,23.90
2022-10-25T09:38:56.472Z,24.20
2022-10-25T09:41:36.533Z,24.50
2022-10-25T09:44:07.698Z,24.90
2022-10-25T09:46:42.039Z,24.90
2022-10-25T09:49:26.251Z,24.70
2022-10-25T09:52:02.167Z,24.70
2022-10-25T09:54:33.968Z,24.80
2022-10-25T09:57:01.947Z,25.10
2022-10-25T09:59:30.115Z,25.00
2022-10-25T10:02:00.872Z,25.40
2022-10-25T10:04:35.982Z,25.40
2022-10-25T10:07:08.656Z,25.70
2022-10-25T10:09:44.798Z,25.30
2022-10-25T10:12:21.510Z,25.40
2022-10-25T10:14:56.475Z,24.80
2022-10-25T10:17:27.304Z,24.30
2022-10-25T10:20:14.985Z,24.20
2022-10-25T10:22:52.201Z,24.80
2022-10-25T10:25:24.657Z,24.30
2022-10-25T10:27:55.093Z,24.40
2022-10-25T10:30:26.273Z,24.40
2022-10-25T10:32:58.419Z,24.50
2022-10-25T10:35:32.360Z,24.50
2022-10-25T10:38:15.664Z,24.70
2022-10-25T10:40:46.633Z,24.70
2022-10-25T10:43:31.888Z,24.70
2022-10-25T10:46:04.266Z,25.30
2022-10-25T10:48:42.016Z,25.50
2022-10-25T10:51:25.275Z,25.50
2022-10-25T10:53:59.897Z,25.80
2022-10-25T10:56:30.622Z,25.80
2022-10-25T10:58:58.945Z,25.60
2022-10-25T11:01:33.512Z,25.50
2022-10-25T11:04:03.338Z,24.90
2022-10-25T11:06:33.672Z,24.70
2022-10-25T11:09:17.823Z,24.70
2022-10-25T11:11:46.866Z,25.00
2022-10-25T11:14:16.623Z,24.90
2022-10-25T11:16:54.097Z,24.90
2022-10-25T11:19:47.591Z,24.70
2022-10-25T11:22:37.320Z,24.70
2022-10-25T11:25:22.708Z,24.60
2022-10-25T11:28:03.721Z,24.80
2022-10-25T11:30:40.337Z,24.90
2022-10-25T11:33:37.534Z,25.20
2022-10-25T11:36:19.360Z,25.30
2022-10-25T11:39:00.002Z,25.50
2022-10-25T11:41:37.375Z,25.30
2022-10-25T11:44:23.174Z,25.80
2022-10-25T11:46:59.943Z,25.70
2022-10-25T11:49:38.411Z,25.70
2022-10-25T11:52:30.180Z,25.90
2022-10-25T11:55:09.288Z,25.80
2022-10-25T11:57:44.750Z,25.70
2022-10-25T12:00:16.787Z,25.70
2022-10-25T12:03:02.883Z,25.70
2022-10-25T12:05:38.469Z,25.50
2022-10-25T12:08:23.626Z,25.30
2022-10-25T12:10:57.053Z,25.70
2022-10-25T12:13:30.254Z,26.00
2022-10-25T12:15:59.764Z,25.90
2022-10-25T12:18:32.888Z,25.90
2022-10-25T12:21:02.464Z,25.90
2022-10-25T12:23:40.156Z,25.80
2022-10-25T12:26:17.671Z,25.50
2022-10-25T12:28:48.083Z,25.50
2022-10-25T12:31:19.638Z,25.40
2022-10-25T12:33:53.856Z,25.60
2022-10-25T12:36:28.868Z,25.60
2022-10-25T12:39:00.707Z,25.40
2022-10-25T12:41:33.579Z,25.50
2022-10-25T12:44:17.350Z,25.70
2022-10-25T12:47:23.178Z,25.80
2022-10-25T12:50:30.935Z,25.80
2022-10-25T12:53:26.027Z,25.80
2022-10-25T12:56:02.970Z,25.70
2022-10-25T12:58:47.571Z,25.90
2022-10-25T13:01:37.008Z,25.70
2022-10-25T13:04:26.905Z,25.40
2022-10-25T13:06:55.962Z,25.40
2022-10-25T13:09:27.090Z,25.50
2022-10-25T13:12:00.024Z,25.90
2022-10-25T13:14:30.349Z,26.30
2022-10-25T13:17:35.568Z,26.30
2022-10-25T13:20:45.444Z,26.40
2022-10-25T13:23:49.344Z,26.70
2022-10-25T13:26:19.622Z,26.80
2022-10-25T13:28:50.223Z,26.80
2022-10-25T13:31:58.980Z,26.70
2022-10-25T13:34:36.527Z,26.60
2022-10-25T13:37:07.218Z,26.30
2022-10-25T13:39:39.651Z,26.90
2022-10-25T13:42:21.897Z,26.70
2022-10-25T13:44:56.319Z,26.90
2022-10-25T13:47:35.169Z,26.80
2022-10-25T13:50:13.564Z,27.00
2022-10-25T13:52:47.403Z,27.30
2022-10-25T13:55:17.286Z,27.50
2022-10-25T13:57:56.497Z,26.60
2022-10-25T14:00:47.876Z,26.70
2022-10-25T14:03:35.636Z,26.60
2022-10-25T14:06:12.187Z,26.00
2022-10-25T14:08:52.202Z,26.60
2022-10-25T14:11:24.904Z,26.70
2022-10-25T14:13:56.718Z,26.70
2022-10-25T14:16:29.909Z,27.20
2022-10-25T14:19:02.887Z,27.10
2022-10-25T14:21:30.982Z,27.80
2022-10-25T14:24:00.629Z,28.20
2022-10-25T14:26:28.599Z,28.30
2022-10-25T14:29:14.262Z,28.30
2022-10-25T14:31:44.098Z,28.20
2022-10-25T14:34:20.459Z,28.10
2022-10-25T14:36:53.138Z,27.60
2022-10-25T14:39:24.003Z,27.30
2022-10-25T14:41:54.184Z,27.20
2022-10-25T14:44:25.569Z,27.90
2022-10-25T14:46:55.925Z,27.70
2022-10-25T14:49:24.754Z,27.70
2022-10-25T14:51:56.422Z,27.40
2022-10-25T14:54:28.587Z,27.10
2022-10-25T14:56:59.878Z,27.00
2022-10-25T14:59:32.142Z,27.20
2022-10-25T15:02:05.906Z,27.30
2022-10-25T15:04:36.191Z,27.70
2022-10-25T15:07:04.722Z,28.20
2022-10-25T15:09:49.044Z,28.20
2022-10-25T15:12:19.828Z,28.40
2022-10-25T15:14:48.492Z,28.60
2022-10-25T15:17:26.224Z,28.80
2022-10-25T15:19:59.090Z,28.70
2022-10-25T15:22:29.910Z,28.80
2022-10-25T15:24:58.640Z,28.60
2022-10-25T15:27:32.510Z,28.00
2022-10-25T15:30:00.466Z,28.30
2022-10-25T15:32:30.129Z,27.80
2022-10-25T15:35:00.926Z,27.90
2022-10-25T15:37:30.429Z,27.90
2022-10-25T15:39:58.731Z,27.30
2022-10-25T15:42:27.700Z,27.50
2022-10-25T15:44:55.665Z,27.60
2022-10-25T15:47:37.311Z,27.50
2022-10-25T15:50:13.624Z,27.30
2022-10-25T15:52:41.872Z,27.40
2022-10-25T15:55:18.576Z,27.20
2022-10-25T15:57:46.809Z,27.10
2022-10-25T16:00:15.848Z,27.10
2022-10-25T16:02:46.840Z,27.40
2022-10-25T16:05:20.863Z,27.60
2022-10-25T16:07:48.843Z,27.80
2022-10-25T16:10:17.132Z,27.90
2022-10-25T16:12:47.813Z,27.90
2022-10-25T16:15:18.697Z,27.80
2022-10-25T16:17:48.692Z,27.50
2022-10-25T16:20:19.031Z,27.10
2022-10-25T16:22:47.850Z,27.20
2022-10-25T16:25:16.752Z,27.20
2022-10-25T16:27:46.359Z,27.10
2022-10-25T16:30:16.627Z,27.00
2022-10-25T16:32:44.945Z,27.00
2022-10-25T16:35:15.764Z,27.10
2022-10-25T16:37:44.455Z,27.10
2022-10-25T16:40:16.007Z,27.60
2022-10-25T16:42:44.503Z,27.70
2022-10-25T16:45:16.046Z,27.20
2022-10-25T16:47:44.024Z,27.30
2022-10-25T16:50:11.968Z,27.00
2022-10-25T16:52:41.262Z,26.60
2022-10-25T16:55:10.499Z,26.60
2022-10-25T16:57:38.455Z,26.70
2022-10-25T17:00:07.693Z,27.10
2022-10-25T17:02:35.670Z,26.80
2022-10-25T17:05:03.616Z,26.70
2022-10-25T17:07:31.687Z,26.80
2022-10-25T17:10:01.012Z,27.10
2022-10-25T17:12:28.973Z,26.90
2022-10-25T17:14:56.972Z,27.00
2022-10-25T17:17:25.729Z,26.90
2022-10-25T17:19:53.686Z,26.70
2022-10-25T17:22:22.403Z,26.40
2022-10-25T17:24:50.308Z,26.30
2022-10-25T17:27:21.769Z,26.00
2022-10-25T17:29:49.720Z,25.90
2022-10-25T17:32:17.658Z,25.60
2022-10-25T17:34:45.585Z,25.70
2022-10-25T17:37:13.514Z,25.70
2022-10-25T17:39:41.607Z,25.60
2022-10-25T17:42:09.556Z,25.40
2022-10-25T17:44:38.839Z,25.40
2022-10-25T17:47:06.751Z,25.50
2022-10-25T17:49:35.156Z,25.30
2022-10-25T17:52:03.328Z,25.30
2022-10-25T17:54:31.256Z,25.50
2022-10-25T17:57:01.127Z,25.30
2022-10-25T17:59:30.198Z,25.40
2022-10-25T18:02:00.164Z,25.70
2022-10-25T18:04:33.235Z,25.80
2022-10-25T18:07:10.153Z,25.80
2022-10-25T18:09:38.114Z,25.60
2022-10-25T18:12:07.603Z,25.30
2022-10-25T18:14:35.519Z,25.20
2022-10-25T18:17:06.511Z,24.90
2022-10-25T18:19:34.443Z,25.30
2022-10-25T18:22:04.135Z,25.20
2022-10-25T18:24:33.361Z,25.60
2022-10-25T18:27:01.242Z,25.50
2022-10-25T18:29:29.161Z,25.60
2022-10-25T18:31:57.079Z,25.20
2022-10-25T18:34:32.470Z,25.10
2022-10-25T18:37:01.334Z,25.00
2022-10-25T18:39:29.276Z,24.80
2022-10-25T18:41:58.059Z,24.60
2022-10-25T18:44:26.054Z,24.60
2022-10-25T18:46:55.821Z,24.90
2022-10-25T18:49:23.826Z,25.10
2022-10-25T18:51:53.165Z,25.20
2022-10-25T18:54:21.072Z,25.10
2022-10-25T18:56:50.186Z,25.20
2022-10-25T18:59:19.300Z,25.20
2022-10-25T19:01:47.510Z,24.90
2022-10-25T19:04:15.728Z,25.20
2022-10-25T19:06:44.297Z,25.60
2022-10-25T19:09:14.321Z,25.50
2022-10-25T19:11:43.843Z,25.70
2022-10-25T19:14:11.775Z,25.80
2022-10-25T19:16:41.452Z,26.10
2022-10-25T19:19:11.832Z,26.20
2022-10-25T19:21:40.171Z,26.20
2022-10-25T19:24:11.774Z,26.40
2022-10-25T19:26:41.780Z,26.40
2022-10-25T19:29:10.547Z,26.40
2022-10-25T19:31:38.602Z,26.50
2022-10-25T19:34:06.590Z,26.40
2022-10-25T19:36:34.868Z,26.30
2022-10-25T19:39:04.925Z,26.20
2022-10-25T19:41:32.893Z,25.80
2022-10-25T19:44:02.261Z,25.40
2022-10-25T19:46:30.184Z,25.30
2022-10-25T19:49:00.201Z,25.40
2022-10-25T19:51:28.546Z,25.40
2022-10-25T19:53:56.638Z,25.50
2022-10-25T19:56:27.061Z,25.80
2022-10-25T19:58:55.122Z,26.10
2022-10-25T20:01:27.159Z,26.20
2022-10-25T20:03:57.783Z,26.40
2022-10-25T20:06:27.442Z,26.60
2022-10-25T20:08:56.322Z,26.80
2022-10-25T20:11:25.831Z,26.80
2022-10-25T20:13:54.959Z,26.60
2022-10-25T20:16:25.146Z,26.60
2022-10-25T20:18:53.477Z,26.70
2022-10-25T20:21:25.882Z,26.70
2022-10-25T20:23:56.051Z,26.90
2022-10-25T20:26:25.933Z,26.80
2022-10-25T20:28:54.805Z,26.70
2022-10-25T20:31:25.302Z,26.70
2022-10-25T20:33:54.159Z,26.70
2022-10-25T20:36:23.850Z,26.70
2022-10-25T20:38:52.175Z,26.60
2022-10-25T20:41:24.637Z,26.40
2022-10-25T20:43:55.160Z,26.40
2022-10-25T20:46:27.581Z,26.40
2022-10-25T20:48:55.721Z,26.20
2022-10-25T20:51:24.031Z,26.20
2022-10-25T20:53:52.181Z,26.20
2022-10-25T20:56:22.345Z,26.20
2022-10-25T20:58:50.391Z,26.10
2022-10-25T21:01:18.476Z,25.90
2022-10-25T21:03:47.907Z,26.00
2022-10-25T21:06:15.830Z,25.90
2022-10-25T21:08:43.789Z,25.80
2022-10-25T21:11:14.037Z,25.80
2022-10-25T21:13:42.101Z,25.80
2022-10-25T21:16:11.851Z,25.80
2022-10-25T21:18:40.133Z,25.60
2022-10-25T21:21:11.645Z,25.60
2022-10-25T21:23:39.616Z,25.50
2022-10-25T21:26:09.437Z,25.40
2022-10-25T21:28:38.828Z,25.40
2022-10-25T21:31:08.957Z,25.50
2022-10-25T21:33:36.988Z,25.40
2022-10-25T21:36:06.533Z,25.10
2022-10-25T21:38:36.290Z,25.30
2022-10-25T21:41:12.075Z,25.30
2022-10-25T21:43:45.675Z,25.30
2022-10-25T21:46:13.943Z,25.20
2022-10-25T21:51:49.313Z,25.00
2022-10-25T21:54:21.338Z,24.90
2022-10-25T21:57:07.867Z,24.70
2022-10-25T21:59:35.986Z,24.80
2022-10-25T22:02:05.762Z,24.90
2022-10-25T22:04:34.117Z,24.80
2022-10-25T22:07:02.416Z,24.50
2022-10-25T22:09:31.700Z,24.70
2022-10-25T22:11:59.627Z,24.80
2022-10-25T22:14:27.673Z,24.60
2022-10-25T22:16:55.562Z,24.80
2022-10-25T22:21:56.909Z,24.60
2022-10-25T22:24:24.977Z,24.70
2022-10-25T22:26:54.233Z,24.90
2022-10-25T22:29:25.260Z,24.70
2022-10-25T22:31:53.165Z,24.80
2022-10-25T22:34:21.107Z,24.80
2022-10-25T22:36:49.044Z,24.90
2022-10-25T22:39:17.004Z,25.10
2022-10-25T22:41:45.998Z,24.90
2022-10-25T22:44:15.653Z,24.80
2022-10-25T22:46:43.584Z,24.60
2022-10-25T22:49:11.528Z,24.60
2022-10-25T22:51:40.037Z,24.50
2022-10-25T22:54:08.535Z,24.50
2022-10-25T22:56:36.692Z,24.70
2022-10-25T22:59:06.451Z,24.80
2022-10-25T23:01:37.569Z,24.90
2022-10-25T23:04:07.636Z,25.10
2022-10-25T23:06:37.885Z,25.00
2022-10-25T23:09:08.870Z,24.70
2022-10-25T23:11:38.279Z,24.90
2022-10-25T23:14:07.394Z,24.70
2022-10-25T23:16:36.987Z,24.50
2022-10-25T23:19:04.952Z,24.70
2022-10-25T23:21:33.368Z,24.40
2022-10-25T23:24:03.979Z,24.60
2022-10-25T23:26:33.752Z,24.70
2022-10-25T23:29:02.145Z,24.60
2022-10-25T23:31:30.964Z,24.70
2022-10-25T23:34:01.834Z,24.60
2022-10-25T23:36:37.080Z,24.70
2022-10-25T23:39:06.149Z,24.80
2022-10-25T23:41:34.090Z,24.80
2022-10-25T23:44:03.858Z,24.90
2022-10-25T23:46:32.025Z,25.00
2022-10-25T23:49:01.404Z,25.00
2022-10-25T23:51:29.365Z,24.90
2022-10-25T23:53:57.276Z,24.50
2022-10-25T23:56:25.606Z,24.60
2022-10-25T23:58:54.014Z,24.60
